Terminal Aerodrome Forecast
Issued by NWS Wichita, KS

Home | Current Version | Previous Version | Text Only | Print | Product List | Glossary On
Versions: 1 2 3 4 5 6 7 8 9 10 11 12 13 14 15 16 17 18 19 20 21 22 23 24 25 26 27
000
FTUS43 KICT 011125
TAFICT
TAF
KICT 011125Z 0112/0212 VRB03KT 2SM BR OVC006
      TEMPO 0112/0115 1/4SM -SN FZFG OVC003
     FM011600 34005KT P6SM SCT015 BKN035
     FM012300 01005KT P6SM SCT150
     FM021000 06003KT 4SM BR SCT009=

USA.gov is the U.S. government's official web portal to all federal, state and local government web resources and services.